<?xml version="1.0" encoding="UTF-8" standalone="no" ?><gpx xmlns="http://www.topografix.com/GPX/1/1" xmlns:gpxx="http://www.garmin.com/xmlschemas/GpxExtensions/v3" xmlns:wptx1="http://www.garmin.com/xmlschemas/WaypointExtension/v1" xmlns:gpxtpx="http://www.garmin.com/xmlschemas/TrackPointExtension/v1" creator="GuideVTT.com" version="1.1" xmlns:xsi="http://www.w3.org/2001/XMLSchema-instance" xsi:schemaLocation="http://www.topografix.com/GPX/1/1 http://www.topografix.com/GPX/1/1/gpx.xsd http://www.garmin.com/xmlschemas/GpxExtensions/v3 http://www8.garmin.com/xmlschemas/GpxExtensionsv3.xsd http://www.garmin.com/xmlschemas/WaypointExtension/v1 http://www8.garmin.com/xmlschemas/WaypointExtensionv1.xsd http://www.garmin.com/xmlschemas/TrackPointExtension/v1 http://www.garmin.com/xmlschemas/TrackPointExtensionv1.xsd">
<metadata><link href="http://www.garmin.com"><text>Garmin International</text></link><time>2013-06-22T15:13:50Z</time></metadata>
<trk><name>carecas.gpx</name><extensions><gpxx:TrackExtension><gpxx:DisplayColor>Cyan</gpxx:DisplayColor></gpxx:TrackExtension></extensions><trkseg>
<trkpt lat="46.602417" lon="7.092440"><ele></ele><time>2014-8-4T12:45:10Z</time></trkpt>
<trkpt lat="46.602622" lon="7.092294"><ele></ele><time>2014-8-4T12:45:13Z</time></trkpt>
<trkpt lat="46.602750" lon="7.092231"><ele></ele><time>2014-8-4T12:45:16Z</time></trkpt>
<trkpt lat="46.602936" lon="7.092128"><ele></ele><time>2014-8-4T12:45:19Z</time></trkpt>
<trkpt lat="46.603151" lon="7.091907"><ele></ele><time>2014-8-4T12:45:22Z</time></trkpt>
<trkpt lat="46.603261" lon="7.091724"><ele></ele><time>2014-8-4T12:45:25Z</time></trkpt>
<trkpt lat="46.603476" lon="7.091907"><ele></ele><time>2014-8-4T12:45:28Z</time></trkpt>
<trkpt lat="46.603595" lon="7.092101"><ele></ele><time>2014-8-4T12:45:31Z</time></trkpt>
<trkpt lat="46.603879" lon="7.092410"><ele></ele><time>2014-8-4T12:45:34Z</time></trkpt>
<trkpt lat="46.604027" lon="7.092372"><ele></ele><time>2014-8-4T12:45:37Z</time></trkpt>
<trkpt lat="46.604267" lon="7.092148"><ele></ele><time>2014-8-4T12:45:40Z</time></trkpt>
<trkpt lat="46.604461" lon="7.092120"><ele></ele><time>2014-8-4T12:45:43Z</time></trkpt>
<trkpt lat="46.604724" lon="7.092166"><ele></ele><time>2014-8-4T12:45:46Z</time></trkpt>
<trkpt lat="46.605033" lon="7.092228"><ele></ele><time>2014-8-4T12:45:49Z</time></trkpt>
<trkpt lat="46.605192" lon="7.092220"><ele></ele><time>2014-8-4T12:45:52Z</time></trkpt>
<trkpt lat="46.605354" lon="7.092199"><ele></ele><time>2014-8-4T12:45:55Z</time></trkpt>
<trkpt lat="46.605658" lon="7.092259"><ele></ele><time>2014-8-4T12:45:58Z</time></trkpt>
<trkpt lat="46.605920" lon="7.092324"><ele></ele><time>2014-8-4T12:46:1Z</time></trkpt>
<trkpt lat="46.606211" lon="7.092519"><ele></ele><time>2014-8-4T12:46:4Z</time></trkpt>
<trkpt lat="46.606420" lon="7.092797"><ele></ele><time>2014-8-4T12:46:7Z</time></trkpt>
<trkpt lat="46.606719" lon="7.093364"><ele></ele><time>2014-8-4T12:46:10Z</time></trkpt>
<trkpt lat="46.606825" lon="7.093815"><ele></ele><time>2014-8-4T12:46:13Z</time></trkpt>
<trkpt lat="46.606854" lon="7.094203"><ele></ele><time>2014-8-4T12:46:16Z</time></trkpt>
<trkpt lat="46.606928" lon="7.094609"><ele></ele><time>2014-8-4T12:46:19Z</time></trkpt>
<trkpt lat="46.607248" lon="7.094753"><ele></ele><time>2014-8-4T12:46:22Z</time></trkpt>
<trkpt lat="46.607595" lon="7.094447"><ele></ele><time>2014-8-4T12:46:25Z</time></trkpt>
<trkpt lat="46.607887" lon="7.094308"><ele></ele><time>2014-8-4T12:46:28Z</time></trkpt>
<trkpt lat="46.608081" lon="7.094181"><ele></ele><time>2014-8-4T12:46:31Z</time></trkpt>
<trkpt lat="46.608302" lon="7.094149"><ele></ele><time>2014-8-4T12:46:34Z</time></trkpt>
<trkpt lat="46.608408" lon="7.093941"><ele></ele><time>2014-8-4T12:46:37Z</time></trkpt>
<trkpt lat="46.608524" lon="7.093711"><ele></ele><time>2014-8-4T12:46:40Z</time></trkpt>
<trkpt lat="46.608638" lon="7.093370"><ele></ele><time>2014-8-4T12:46:43Z</time></trkpt>
<trkpt lat="46.608707" lon="7.093002"><ele></ele><time>2014-8-4T12:46:46Z</time></trkpt>
<trkpt lat="46.608840" lon="7.092515"><ele></ele><time>2014-8-4T12:46:49Z</time></trkpt>
<trkpt lat="46.608990" lon="7.092144"><ele></ele><time>2014-8-4T12:46:52Z</time></trkpt>
<trkpt lat="46.609199" lon="7.091786"><ele></ele><time>2014-8-4T12:46:55Z</time></trkpt>
<trkpt lat="46.609305" lon="7.091602"><ele></ele><time>2014-8-4T12:46:58Z</time></trkpt>
<trkpt lat="46.609723" lon="7.091398"><ele></ele><time>2014-8-4T12:47:1Z</time></trkpt>
<trkpt lat="46.610130" lon="7.091565"><ele></ele><time>2014-8-4T12:47:4Z</time></trkpt>
<trkpt lat="46.610573" lon="7.091724"><ele></ele><time>2014-8-4T12:47:7Z</time></trkpt>
<trkpt lat="46.610802" lon="7.091896"><ele></ele><time>2014-8-4T12:47:10Z</time></trkpt>
<trkpt lat="46.610793" lon="7.092150"><ele></ele><time>2014-8-4T12:47:13Z</time></trkpt>
<trkpt lat="46.610787" lon="7.092331"><ele></ele><time>2014-8-4T12:47:16Z</time></trkpt>
<trkpt lat="46.611013" lon="7.092602"><ele></ele><time>2014-8-4T12:47:19Z</time></trkpt>
<trkpt lat="46.611160" lon="7.092840"><ele></ele><time>2014-8-4T12:47:22Z</time></trkpt>
<trkpt lat="46.611442" lon="7.093124"><ele></ele><time>2014-8-4T12:47:25Z</time></trkpt>
<trkpt lat="46.611665" lon="7.093427"><ele></ele><time>2014-8-4T12:47:28Z</time></trkpt>
<trkpt lat="46.611906" lon="7.093693"><ele></ele><time>2014-8-4T12:47:31Z</time></trkpt>
<trkpt lat="46.612015" lon="7.093773"><ele></ele><time>2014-8-4T12:47:34Z</time></trkpt>
<trkpt lat="46.612456" lon="7.093880"><ele></ele><time>2014-8-4T12:47:37Z</time></trkpt>
<trkpt lat="46.612681" lon="7.093827"><ele></ele><time>2014-8-4T12:47:40Z</time></trkpt>
<trkpt lat="46.613158" lon="7.093675"><ele></ele><time>2014-8-4T12:47:43Z</time></trkpt>
<trkpt lat="46.613421" lon="7.093620"><ele></ele><time>2014-8-4T12:47:46Z</time></trkpt>
<trkpt lat="46.613755" lon="7.093975"><ele></ele><time>2014-8-4T12:47:49Z</time></trkpt>
<trkpt lat="46.614068" lon="7.094647"><ele></ele><time>2014-8-4T12:47:52Z</time></trkpt>
<trkpt lat="46.614263" lon="7.094920"><ele></ele><time>2014-8-4T12:47:55Z</time></trkpt>
<trkpt lat="46.614451" lon="7.095229"><ele></ele><time>2014-8-4T12:47:58Z</time></trkpt>
<trkpt lat="46.614270" lon="7.095426"><ele></ele><time>2014-8-4T12:48:1Z</time></trkpt>
<trkpt lat="46.613997" lon="7.095660"><ele></ele><time>2014-8-4T12:48:4Z</time></trkpt>
<trkpt lat="46.613845" lon="7.096037"><ele></ele><time>2014-8-4T12:48:7Z</time></trkpt>
<trkpt lat="46.613702" lon="7.096396"><ele></ele><time>2014-8-4T12:48:10Z</time></trkpt>
<trkpt lat="46.613320" lon="7.096801"><ele></ele><time>2014-8-4T12:48:13Z</time></trkpt>
<trkpt lat="46.613029" lon="7.097139"><ele></ele><time>2014-8-4T12:48:16Z</time></trkpt>
<trkpt lat="46.612889" lon="7.097285"><ele></ele><time>2014-8-4T12:48:19Z</time></trkpt>
<trkpt lat="46.612635" lon="7.098117"><ele></ele><time>2014-8-4T12:48:22Z</time></trkpt>
<trkpt lat="46.612629" lon="7.098642"><ele></ele><time>2014-8-4T12:48:25Z</time></trkpt>
<trkpt lat="46.612419" lon="7.099238"><ele></ele><time>2014-8-4T12:48:28Z</time></trkpt>
<trkpt lat="46.612385" lon="7.099554"><ele></ele><time>2014-8-4T12:48:31Z</time></trkpt>
<trkpt lat="46.611972" lon="7.100031"><ele></ele><time>2014-8-4T12:48:34Z</time></trkpt>
<trkpt lat="46.611312" lon="7.100286"><ele></ele><time>2014-8-4T12:48:37Z</time></trkpt>
<trkpt lat="46.611052" lon="7.100494"><ele></ele><time>2014-8-4T12:48:40Z</time></trkpt>
<trkpt lat="46.610715" lon="7.100757"><ele></ele><time>2014-8-4T12:48:43Z</time></trkpt>
<trkpt lat="46.610379" lon="7.101044"><ele></ele><time>2014-8-4T12:48:46Z</time></trkpt>
<trkpt lat="46.610075" lon="7.101313"><ele></ele><time>2014-8-4T12:48:49Z</time></trkpt>
<trkpt lat="46.609690" lon="7.101640"><ele></ele><time>2014-8-4T12:48:52Z</time></trkpt>
<trkpt lat="46.609500" lon="7.101804"><ele></ele><time>2014-8-4T12:48:55Z</time></trkpt>
<trkpt lat="46.609416" lon="7.102421"><ele></ele><time>2014-8-4T12:48:58Z</time></trkpt>
<trkpt lat="46.609303" lon="7.103088"><ele></ele><time>2014-8-4T12:49:1Z</time></trkpt>
<trkpt lat="46.609183" lon="7.103733"><ele></ele><time>2014-8-4T12:49:4Z</time></trkpt>
<trkpt lat="46.609070" lon="7.104237"><ele></ele><time>2014-8-4T12:49:7Z</time></trkpt>
<trkpt lat="46.608880" lon="7.104770"><ele></ele><time>2014-8-4T12:49:10Z</time></trkpt>
<trkpt lat="46.608665" lon="7.105221"><ele></ele><time>2014-8-4T12:49:13Z</time></trkpt>
<trkpt lat="46.608580" lon="7.105634"><ele></ele><time>2014-8-4T12:49:16Z</time></trkpt>
<trkpt lat="46.608836" lon="7.105886"><ele></ele><time>2014-8-4T12:49:19Z</time></trkpt>
<trkpt lat="46.609063" lon="7.106101"><ele></ele><time>2014-8-4T12:49:22Z</time></trkpt>
<trkpt lat="46.609317" lon="7.106394"><ele></ele><time>2014-8-4T12:49:25Z</time></trkpt>
<trkpt lat="46.609566" lon="7.106760"><ele></ele><time>2014-8-4T12:49:28Z</time></trkpt>
<trkpt lat="46.609636" lon="7.107064"><ele></ele><time>2014-8-4T12:49:31Z</time></trkpt>
<trkpt lat="46.609841" lon="7.107375"><ele></ele><time>2014-8-4T12:49:34Z</time></trkpt>
<trkpt lat="46.610023" lon="7.107427"><ele></ele><time>2014-8-4T12:49:37Z</time></trkpt>
<trkpt lat="46.610079" lon="7.107972"><ele></ele><time>2014-8-4T12:49:40Z</time></trkpt>
<trkpt lat="46.610185" lon="7.108423"><ele></ele><time>2014-8-4T12:49:43Z</time></trkpt>
<trkpt lat="46.610232" lon="7.108843"><ele></ele><time>2014-8-4T12:49:46Z</time></trkpt>
<trkpt lat="46.610170" lon="7.109205"><ele></ele><time>2014-8-4T12:49:49Z</time></trkpt>
<trkpt lat="46.610376" lon="7.109253"><ele></ele><time>2014-8-4T12:49:52Z</time></trkpt>
<trkpt lat="46.610581" lon="7.109241"><ele></ele><time>2014-8-4T12:49:55Z</time></trkpt>
<trkpt lat="46.610884" lon="7.109199"><ele></ele><time>2014-8-4T12:49:58Z</time></trkpt>
<trkpt lat="46.611153" lon="7.109281"><ele></ele><time>2014-8-4T12:50:1Z</time></trkpt>
<trkpt lat="46.611344" lon="7.109642"><ele></ele><time>2014-8-4T12:50:4Z</time></trkpt>
<trkpt lat="46.611486" lon="7.109812"><ele></ele><time>2014-8-4T12:50:7Z</time></trkpt>
<trkpt lat="46.611596" lon="7.110081"><ele></ele><time>2014-8-4T12:50:10Z</time></trkpt>
<trkpt lat="46.611719" lon="7.110272"><ele></ele><time>2014-8-4T12:50:13Z</time></trkpt>
<trkpt lat="46.611766" lon="7.110313"><ele></ele><time>2014-8-4T12:50:16Z</time></trkpt>
<trkpt lat="46.611766" lon="7.110313"><ele></ele><time>2014-8-4T12:50:19Z</time></trkpt>
</trkseg></trk></gpx>